ROYN(METAR)
10/21 04:00
METAR ROYN 201900Z AUTO 06017KT 9999 BKN021 BKN050 27/24 Q1011 RMK
A2986=
戻る
トップページへ戻る
IMOC Co,.Ltd.